createdAt,value
2023-06-11T00:01:31.236Z,84.93
2023-06-11T00:03:58.865Z,85.09
2023-06-11T00:06:26.050Z,85.28
2023-06-11T00:08:56.297Z,85.25
2023-06-11T00:11:24.199Z,85.03
2023-06-11T00:13:51.831Z,85.19
2023-06-11T00:16:18.852Z,85.19
2023-06-11T00:18:46.581Z,85.19
2023-06-11T00:21:15.653Z,85.21
2023-06-11T00:23:42.675Z,85.26
2023-06-11T00:26:09.641Z,85.35
2023-06-11T00:28:36.870Z,85.30
2023-06-11T00:31:07.012Z,85.48
2023-06-11T00:33:34.210Z,85.37
2023-06-11T00:36:01.427Z,86.07
2023-06-11T00:38:29.866Z,86.16
2023-06-11T00:40:56.989Z,85.98
2023-06-11T00:43:25.222Z,86.17
2023-06-11T00:45:52.468Z,86.04
2023-06-11T00:48:21.042Z,85.81
2023-06-11T00:50:53.119Z,86.30
2023-06-11T00:53:23.235Z,86.39
2023-06-11T00:55:50.576Z,86.31
2023-06-11T00:58:19.117Z,86.09
2023-06-11T01:00:56.223Z,86.38
2023-06-11T01:03:28.888Z,86.84
2023-06-11T01:06:04.035Z,86.52
2023-06-11T01:08:40.445Z,86.67
2023-06-11T01:11:15.452Z,86.57
2023-06-11T01:13:42.509Z,86.60
2023-06-11T01:16:16.143Z,86.85
2023-06-11T01:19:04.849Z,86.90
2023-06-11T01:21:42.870Z,86.95
2023-06-11T01:24:19.098Z,87.08
2023-06-11T01:27:06.172Z,86.97
2023-06-11T01:29:38.417Z,87.31
2023-06-11T01:32:06.747Z,87.20
2023-06-11T01:34:33.663Z,87.29
2023-06-11T01:37:01.412Z,87.06
2023-06-11T01:39:28.433Z,87.43
2023-06-11T01:41:56.321Z,87.19
2023-06-11T01:44:23.983Z,87.58
2023-06-11T01:46:51.323Z,87.85
2023-06-11T01:49:18.858Z,88.03
2023-06-11T01:51:45.991Z,87.87
2023-06-11T01:54:13.084Z,87.89
2023-06-11T01:56:40.041Z,87.87
2023-06-11T01:59:07.719Z,87.94
2023-06-11T02:01:39.692Z,88.28
2023-06-11T02:04:06.783Z,88.18
2023-06-11T02:06:34.814Z,88.50
2023-06-11T02:09:01.705Z,88.60
2023-06-11T02:11:28.561Z,88.69
2023-06-11T02:13:55.468Z,88.63
2023-06-11T02:16:22.326Z,89.25
2023-06-11T02:18:49.829Z,89.07
2023-06-11T02:21:16.898Z,89.08
2023-06-11T02:23:43.776Z,89.32
2023-06-11T02:26:10.745Z,89.24
2023-06-11T02:28:37.711Z,89.59
2023-06-11T02:31:04.525Z,89.22
2023-06-11T02:33:31.367Z,89.00
2023-06-11T02:35:58.186Z,89.52
2023-06-11T02:38:24.959Z,89.37
2023-06-11T02:40:51.807Z,89.55
2023-06-11T02:43:18.886Z,89.35
2023-06-11T02:45:45.861Z,89.65
2023-06-11T02:48:12.675Z,89.36
2023-06-11T02:50:39.529Z,89.26
2023-06-11T02:53:06.489Z,89.37
2023-06-11T02:55:33.468Z,89.36
2023-06-11T02:58:00.438Z,89.38
2023-06-11T03:00:27.651Z,89.41
2023-06-11T03:02:54.513Z,89.15
2023-06-11T03:05:21.500Z,89.36
2023-06-11T03:07:48.423Z,89.32
2023-06-11T03:10:15.465Z,89.28
2023-06-11T03:12:42.268Z,89.35
2023-06-11T03:15:09.723Z,89.62
2023-06-11T03:17:36.908Z,89.49
2023-06-11T03:20:04.025Z,88.92
2023-06-11T03:22:30.923Z,88.90
2023-06-11T03:24:57.750Z,89.21
2023-06-11T03:27:25.414Z,89.38
2023-06-11T03:29:52.492Z,89.29
2023-06-11T03:32:19.566Z,89.24
2023-06-11T03:34:46.442Z,89.04
2023-06-11T03:37:13.257Z,89.11
2023-06-11T03:39:40.178Z,89.18
2023-06-11T03:42:07.457Z,89.33
2023-06-11T03:44:34.443Z,89.05
2023-06-11T03:47:01.479Z,88.87
2023-06-11T03:49:28.759Z,89.04
2023-06-11T04:03:03.970Z,86.58
2023-06-11T04:05:36.717Z,85.89
2023-06-11T04:08:04.823Z,86.21
2023-06-11T04:10:32.339Z,86.37
2023-06-11T04:12:59.298Z,86.19
2023-06-11T04:15:27.032Z,86.31
2023-06-11T04:17:53.940Z,86.49
2023-06-11T04:20:21.040Z,86.57
2023-06-11T04:22:47.845Z,86.61
2023-06-11T04:25:15.157Z,86.62
2023-06-11T04:27:41.992Z,86.78
2023-06-11T04:30:10.595Z,86.86
2023-06-11T04:32:38.457Z,86.96
2023-06-11T04:35:06.171Z,87.21
2023-06-11T04:37:39.832Z,86.99
2023-06-11T04:40:12.035Z,87.12
2023-06-11T04:42:42.302Z,87.08
2023-06-11T04:45:12.739Z,87.21
2023-06-11T04:47:42.049Z,87.40
2023-06-11T04:50:09.850Z,87.25
2023-06-11T04:52:40.064Z,87.36
2023-06-11T04:55:10.791Z,87.04
2023-06-11T04:57:38.555Z,86.98
2023-06-11T05:00:12.711Z,86.88
2023-06-11T05:02:40.155Z,86.41
2023-06-11T05:05:07.645Z,86.17
2023-06-11T05:07:34.908Z,86.20
2023-06-11T05:10:02.208Z,86.04
2023-06-11T05:12:29.089Z,85.77
2023-06-11T05:14:56.182Z,85.61
2023-06-11T05:17:23.904Z,85.83
2023-06-11T05:19:52.548Z,85.50
2023-06-11T05:22:20.798Z,85.56
2023-06-11T05:24:49.073Z,85.60
2023-06-11T05:27:16.649Z,85.72
2023-06-11T05:29:46.003Z,85.85
2023-06-11T05:32:16.262Z,85.93
2023-06-11T05:34:44.478Z,85.82
2023-06-11T05:37:11.847Z,85.58
2023-06-11T05:39:38.736Z,85.85
2023-06-11T05:42:06.511Z,85.73
2023-06-11T05:44:33.330Z,86.07
2023-06-11T05:47:00.242Z,85.99
2023-06-11T05:49:27.262Z,85.91
2023-06-11T05:51:54.054Z,85.82
2023-06-11T05:54:20.929Z,86.77
2023-06-11T05:56:47.809Z,87.12
2023-06-11T05:59:14.624Z,85.88
2023-06-11T06:01:46.460Z,85.76
2023-06-11T06:04:16.289Z,85.55
2023-06-11T06:06:44.167Z,85.10
2023-06-11T06:09:11.300Z,84.73
2023-06-11T06:11:38.358Z,84.50
2023-06-11T06:14:05.372Z,84.06
2023-06-11T06:16:33.083Z,84.04
2023-06-11T06:19:00.224Z,83.67
2023-06-11T06:21:27.093Z,83.72
2023-06-11T06:23:54.176Z,83.30
2023-06-11T06:26:21.851Z,82.88
2023-06-11T06:28:48.767Z,82.75
2023-06-11T06:31:18.727Z,82.56
2023-06-11T06:33:45.962Z,82.30
2023-06-11T06:36:13.105Z,82.11
2023-06-11T06:38:41.750Z,81.99
2023-06-11T06:41:08.951Z,82.32
2023-06-11T06:43:36.709Z,82.11
2023-06-11T06:46:03.534Z,81.91
2023-06-11T06:48:30.527Z,81.84
2023-06-11T06:50:57.692Z,81.75
2023-06-11T06:53:24.536Z,81.81
2023-06-11T06:55:53.290Z,81.74
2023-06-11T06:58:20.568Z,81.29
2023-06-11T07:00:47.397Z,81.16
2023-06-11T07:03:16.962Z,81.21
2023-06-11T07:05:44.722Z,81.35
2023-06-11T07:08:13.521Z,81.12
2023-06-11T07:10:50.358Z,81.04
2023-06-11T07:13:17.294Z,80.60
2023-06-11T07:15:44.320Z,80.13
2023-06-11T07:18:11.299Z,79.50
2023-06-11T07:20:38.823Z,79.46
2023-06-11T07:23:05.805Z,79.57
2023-06-11T07:25:33.277Z,79.72
2023-06-11T07:28:03.563Z,79.01
2023-06-11T07:30:30.501Z,78.81
2023-06-11T07:32:57.584Z,78.88
2023-06-11T07:35:26.384Z,78.99
2023-06-11T07:37:53.785Z,78.92
2023-06-11T07:40:21.681Z,78.04
2023-06-11T07:42:49.237Z,78.36
2023-06-11T07:45:18.558Z,78.24
2023-06-11T07:47:46.846Z,77.54
2023-06-11T07:50:13.899Z,76.82
2023-06-11T07:52:41.304Z,75.90
2023-06-11T07:55:08.583Z,75.59
2023-06-11T07:57:35.455Z,76.10
2023-06-11T08:00:02.566Z,75.73
2023-06-11T08:02:30.171Z,74.62
2023-06-11T08:04:57.014Z,74.02
2023-06-11T08:07:23.787Z,73.29
2023-06-11T08:09:51.593Z,73.50
2023-06-11T08:12:18.310Z,73.42
2023-06-11T08:14:45.130Z,73.36
2023-06-11T08:17:11.940Z,73.26
2023-06-11T08:19:38.707Z,72.44
2023-06-11T08:22:06.267Z,72.49
2023-06-11T08:24:33.196Z,72.35
2023-06-11T08:27:00.089Z,71.33
2023-06-11T08:29:27.584Z,71.09
2023-06-11T08:31:54.422Z,70.43
2023-06-11T08:34:21.265Z,70.28
2023-06-11T08:36:48.582Z,69.77
2023-06-11T08:39:15.303Z,69.05
2023-06-11T08:41:42.111Z,69.04
2023-06-11T08:44:09.005Z,67.65
2023-06-11T08:46:38.047Z,67.55
2023-06-11T08:49:08.748Z,67.83
2023-06-11T08:51:41.116Z,67.59
2023-06-11T08:54:09.635Z,67.20
2023-06-11T08:56:37.028Z,67.09
2023-06-11T08:59:04.181Z,66.84
2023-06-11T09:01:32.764Z,66.60
2023-06-11T09:04:01.523Z,65.71
2023-06-11T09:06:29.539Z,66.08
2023-06-11T09:09:01.235Z,66.67
2023-06-11T09:11:38.554Z,67.42
2023-06-11T09:14:08.477Z,66.96
2023-06-11T09:16:47.438Z,66.09
2023-06-11T09:19:21.756Z,66.04
2023-06-11T09:21:56.621Z,65.71
2023-06-11T09:24:25.377Z,66.04
2023-06-11T09:27:01.379Z,65.25
2023-06-11T09:29:29.876Z,65.16
2023-06-11T09:32:23.787Z,65.04
2023-06-11T09:34:57.474Z,65.23
2023-06-11T09:37:24.924Z,64.36
2023-06-11T09:39:51.713Z,64.32
2023-06-11T09:42:28.370Z,63.72
2023-06-11T09:45:02.460Z,64.12
2023-06-11T09:47:32.209Z,63.61
2023-06-11T09:50:00.842Z,64.08
2023-06-11T09:52:29.454Z,63.99
2023-06-11T09:54:56.988Z,62.32
2023-06-11T09:57:23.826Z,61.93
2023-06-11T09:59:52.111Z,61.11
2023-06-11T10:02:19.007Z,60.61
2023-06-11T10:04:46.883Z,61.42
2023-06-11T10:07:14.934Z,61.19
2023-06-11T10:09:44.056Z,60.47
2023-06-11T10:12:13.356Z,61.21
2023-06-11T10:14:41.689Z,61.86
2023-06-11T10:17:09.611Z,61.44
2023-06-11T10:19:37.895Z,62.00
2023-06-11T10:22:05.550Z,61.94
2023-06-11T10:24:32.512Z,61.65
2023-06-11T10:27:06.687Z,61.82
2023-06-11T10:29:38.985Z,62.40
2023-06-11T10:32:16.630Z,60.83
2023-06-11T10:34:44.719Z,61.22
2023-06-11T10:37:13.327Z,60.83
2023-06-11T10:39:55.834Z,61.05
2023-06-11T10:42:36.206Z,60.47
2023-06-11T10:45:08.714Z,60.64
2023-06-11T10:47:42.011Z,59.63
2023-06-11T10:50:12.214Z,57.69
2023-06-11T10:52:57.490Z,58.12
2023-06-11T10:55:27.563Z,57.52
2023-06-11T10:57:55.642Z,56.82
2023-06-11T11:00:23.943Z,57.07
2023-06-11T11:02:52.634Z,57.45
2023-06-11T11:05:20.827Z,58.16
2023-06-11T11:07:48.581Z,57.22
2023-06-11T11:10:20.973Z,57.58
2023-06-11T11:12:49.446Z,58.01
2023-06-11T11:15:17.283Z,56.81
2023-06-11T11:17:45.694Z,57.62
2023-06-11T11:20:21.249Z,57.94
2023-06-11T11:22:53.938Z,57.38
2023-06-11T11:25:23.106Z,57.57
2023-06-11T11:27:50.061Z,56.54
2023-06-11T11:30:18.937Z,56.26
2023-06-11T11:32:46.529Z,56.44
2023-06-11T11:35:16.243Z,56.71
2023-06-11T11:37:47.092Z,57.60
2023-06-11T11:40:14.623Z,56.63
2023-06-11T11:42:52.408Z,56.22
2023-06-11T11:45:31.392Z,56.04
2023-06-11T11:48:01.192Z,56.45
2023-06-11T11:50:35.296Z,56.36
2023-06-11T11:53:05.321Z,56.32
2023-06-11T11:55:56.039Z,55.23
2023-06-11T11:58:28.191Z,55.83
2023-06-11T12:01:00.366Z,55.76
2023-06-11T12:03:28.457Z,55.03
2023-06-11T12:06:04.422Z,54.46
2023-06-11T12:08:33.053Z,54.10
2023-06-11T12:11:02.277Z,54.24
2023-06-11T12:13:29.170Z,54.35
2023-06-11T12:15:56.547Z,54.48
2023-06-11T12:18:23.510Z,54.58
2023-06-11T12:20:50.412Z,54.40
2023-06-11T12:23:17.251Z,54.63
2023-06-11T12:25:44.204Z,54.90
2023-06-11T12:28:11.082Z,54.61
2023-06-11T12:30:37.957Z,54.11
2023-06-11T12:33:04.987Z,53.36
2023-06-11T12:35:32.177Z,53.46
2023-06-11T12:37:59.197Z,53.49
2023-06-11T12:40:26.540Z,52.87
2023-06-11T12:42:58.288Z,53.17
2023-06-11T12:45:27.964Z,52.63
2023-06-11T12:47:55.145Z,52.43
2023-06-11T12:50:27.330Z,53.00
2023-06-11T12:52:54.890Z,52.72
2023-06-11T12:55:22.316Z,52.38
2023-06-11T12:57:50.148Z,52.67
2023-06-11T13:00:17.548Z,52.19
2023-06-11T13:02:45.524Z,51.03
2023-06-11T13:05:12.707Z,50.94
2023-06-11T13:07:39.689Z,51.75
2023-06-11T13:10:06.953Z,52.51
2023-06-11T13:12:34.032Z,52.28
2023-06-11T13:15:01.128Z,51.85
2023-06-11T13:17:28.780Z,51.99
2023-06-11T13:19:56.303Z,52.61
2023-06-11T13:22:23.524Z,51.56
2023-06-11T13:24:51.108Z,51.05
2023-06-11T13:27:18.389Z,51.01
2023-06-11T13:29:45.335Z,51.22
2023-06-11T13:32:12.454Z,51.94
2023-06-11T13:34:39.542Z,51.05
2023-06-11T13:37:06.855Z,49.68
2023-06-11T13:39:36.522Z,49.47
2023-06-11T13:42:03.784Z,49.82
2023-06-11T13:44:30.721Z,50.40
2023-06-11T13:46:57.809Z,50.63
2023-06-11T13:49:27.356Z,50.62
2023-06-11T13:51:56.028Z,50.66
2023-06-11T13:54:24.199Z,50.58
2023-06-11T13:56:51.644Z,50.14
2023-06-11T13:59:20.852Z,49.63
2023-06-11T14:01:47.697Z,49.19
2023-06-11T14:04:14.626Z,49.91
2023-06-11T14:06:41.523Z,50.29
2023-06-11T14:09:09.454Z,49.64
2023-06-11T14:11:36.432Z,49.25
2023-06-11T14:14:03.368Z,48.78
2023-06-11T14:16:30.475Z,49.03
2023-06-11T14:18:57.421Z,49.48
2023-06-11T14:21:26.062Z,48.78
2023-06-11T14:23:53.078Z,48.80
2023-06-11T14:26:20.015Z,49.14
2023-06-11T14:28:46.893Z,48.89
2023-06-11T14:31:13.824Z,49.43
2023-06-11T14:33:40.733Z,49.56
2023-06-11T14:36:08.747Z,49.78
2023-06-11T14:38:35.843Z,49.43
2023-06-11T14:41:03.196Z,48.73
2023-06-11T14:43:30.158Z,47.61
2023-06-11T14:45:57.108Z,47.06
2023-06-11T14:48:24.014Z,48.03
2023-06-11T14:50:50.973Z,47.69
2023-06-11T14:53:17.866Z,47.79
2023-06-11T14:55:44.986Z,47.44
2023-06-11T14:58:12.365Z,47.70
2023-06-11T15:00:39.206Z,48.32
2023-06-11T15:03:10.506Z,48.93
2023-06-11T15:05:40.996Z,49.08
2023-06-11T15:08:08.058Z,48.75
2023-06-11T15:10:35.817Z,48.28
2023-06-11T15:13:04.154Z,48.20
2023-06-11T15:15:30.978Z,48.46
2023-06-11T15:17:58.423Z,48.56
2023-06-11T15:20:25.486Z,48.98
2023-06-11T15:22:52.366Z,49.35
2023-06-11T15:25:19.413Z,49.85
2023-06-11T15:27:46.324Z,49.79
2023-06-11T15:30:13.502Z,49.41
2023-06-11T15:32:40.721Z,49.59
2023-06-11T15:35:08.736Z,50.36
2023-06-11T15:37:36.440Z,50.54
2023-06-11T15:40:04.000Z,51.11
2023-06-11T15:42:30.941Z,51.58
2023-06-11T15:44:57.935Z,51.75
2023-06-11T15:47:24.900Z,51.11
2023-06-11T15:49:52.649Z,50.45
2023-06-11T15:52:19.626Z,50.74
2023-06-11T15:54:47.091Z,51.14
2023-06-11T15:57:14.085Z,51.22
2023-06-11T15:59:43.634Z,51.39
2023-06-11T16:02:10.734Z,51.48
2023-06-11T16:04:38.005Z,51.32
2023-06-11T16:07:08.234Z,51.32
2023-06-11T16:09:36.641Z,51.74
2023-06-11T16:12:03.979Z,51.91
2023-06-11T16:14:30.824Z,51.18
2023-06-11T16:16:58.671Z,50.46
2023-06-11T16:19:26.313Z,50.73
2023-06-11T16:21:53.218Z,50.90
2023-06-11T16:24:20.332Z,51.25
2023-06-11T16:26:47.399Z,51.94
2023-06-11T16:29:15.212Z,52.05
2023-06-11T16:31:43.874Z,51.95
2023-06-11T16:34:12.630Z,52.06
2023-06-11T16:36:40.079Z,52.36
2023-06-11T16:39:24.965Z,52.22
2023-06-11T16:41:53.432Z,52.45
2023-06-11T16:44:20.424Z,52.25
2023-06-11T16:46:48.022Z,52.66
2023-06-11T16:49:15.067Z,52.44
2023-06-11T16:51:42.077Z,52.64
2023-06-11T16:54:09.233Z,53.17
2023-06-11T16:56:36.450Z,53.47
2023-06-11T16:59:03.394Z,53.78
2023-06-11T17:01:30.553Z,53.98
2023-06-11T17:03:57.844Z,53.95
2023-06-11T17:06:28.158Z,54.53
2023-06-11T17:08:56.412Z,55.30
2023-06-11T17:11:23.391Z,55.87
2023-06-11T17:13:51.433Z,56.26
2023-06-11T17:16:18.357Z,56.67
2023-06-11T17:18:45.289Z,57.16
2023-06-11T17:21:12.769Z,57.46
2023-06-11T17:23:39.726Z,57.97
2023-06-11T17:26:06.671Z,58.26
2023-06-11T17:28:33.662Z,58.71
2023-06-11T17:31:00.973Z,58.88
2023-06-11T17:33:27.891Z,59.12
2023-06-11T17:35:55.030Z,59.49
2023-06-11T17:38:22.064Z,59.50
2023-06-11T17:40:49.448Z,59.84
2023-06-11T17:43:16.386Z,60.00
2023-06-11T17:45:43.278Z,60.10
2023-06-11T17:48:10.221Z,59.71
2023-06-11T17:50:38.390Z,60.25
2023-06-11T17:53:06.282Z,60.07
2023-06-11T17:55:33.183Z,60.40
2023-06-11T17:58:00.208Z,60.51
2023-06-11T18:00:27.155Z,61.18
2023-06-11T18:02:56.344Z,61.43
2023-06-11T18:05:23.419Z,61.32
2023-06-11T18:07:50.425Z,61.60
2023-06-11T18:10:18.618Z,61.65
2023-06-11T18:12:46.078Z,61.95
2023-06-11T18:15:31.520Z,62.14
2023-06-11T18:18:00.495Z,62.16
2023-06-11T18:20:28.779Z,62.27
2023-06-11T18:22:56.434Z,62.19
2023-06-11T18:25:24.145Z,62.20
2023-06-11T18:27:51.128Z,62.29
2023-06-11T18:30:21.098Z,62.31
2023-06-11T18:32:49.022Z,62.22
2023-06-11T18:35:16.071Z,62.44
2023-06-11T18:37:43.007Z,62.42
2023-06-11T18:40:10.762Z,62.44
2023-06-11T18:42:38.219Z,62.57
2023-06-11T18:45:05.714Z,62.79
2023-06-11T18:47:32.608Z,62.62
2023-06-11T18:49:59.665Z,62.95
2023-06-11T18:52:26.582Z,63.03
2023-06-11T18:54:53.706Z,63.38
2023-06-11T18:57:21.069Z,63.36
2023-06-11T18:59:47.977Z,63.43
2023-06-11T19:02:14.830Z,63.87
2023-06-11T19:04:42.450Z,63.90
2023-06-11T19:07:09.816Z,64.20
2023-06-11T19:09:36.656Z,64.20
2023-06-11T19:12:03.743Z,64.83
2023-06-11T19:14:30.683Z,64.82
2023-06-11T19:16:57.589Z,64.99
2023-06-11T19:19:24.542Z,65.41
2023-06-11T19:21:51.423Z,65.65
2023-06-11T19:24:18.444Z,65.81
2023-06-11T19:26:45.293Z,66.05
2023-06-11T19:29:12.662Z,66.21
2023-06-11T19:31:39.801Z,66.53
2023-06-11T19:34:06.659Z,66.40
2023-06-11T19:36:33.658Z,66.48
2023-06-11T19:39:00.669Z,67.00
2023-06-11T19:41:30.446Z,67.28
2023-06-11T19:44:00.924Z,67.59
2023-06-11T19:46:30.780Z,67.61
2023-06-11T19:48:58.663Z,67.71
2023-06-11T19:51:25.821Z,67.94
2023-06-11T19:53:53.157Z,68.30
2023-06-11T19:56:21.198Z,68.36
2023-06-11T19:58:48.974Z,68.61
2023-06-11T20:01:17.823Z,68.75
2023-06-11T20:03:45.768Z,68.89
2023-06-11T20:06:13.483Z,69.08
2023-06-11T20:08:41.569Z,69.26
2023-06-11T20:11:12.509Z,69.26
2023-06-11T20:13:44.609Z,69.29
2023-06-11T20:16:12.647Z,69.45
2023-06-11T20:18:43.346Z,69.39
2023-06-11T20:21:10.255Z,69.61
2023-06-11T20:23:37.362Z,69.54
2023-06-11T20:26:05.202Z,69.67
2023-06-11T20:28:32.737Z,70.01
2023-06-11T20:31:04.504Z,70.39
2023-06-11T20:33:33.215Z,70.23
2023-06-11T20:36:03.235Z,70.63
2023-06-11T20:38:30.065Z,70.62
2023-06-11T20:40:58.657Z,70.99
2023-06-11T20:43:25.756Z,70.88
2023-06-11T20:48:23.372Z,71.22
2023-06-11T20:50:50.456Z,71.17
2023-06-11T20:53:32.613Z,71.14
2023-06-11T20:56:01.422Z,71.04
2023-06-11T20:58:28.913Z,71.14
2023-06-11T21:00:55.812Z,71.11
2023-06-11T21:03:22.829Z,71.34
2023-06-11T21:05:55.548Z,71.50
2023-06-11T21:08:22.496Z,71.49
2023-06-11T21:10:49.774Z,71.44
2023-06-11T21:13:16.681Z,71.48
2023-06-11T21:15:43.833Z,71.53
2023-06-11T21:18:11.052Z,71.61
2023-06-11T21:20:39.644Z,71.89
2023-06-11T21:23:07.276Z,72.24
2023-06-11T21:25:34.236Z,72.41
2023-06-11T21:28:01.409Z,72.30
2023-06-11T21:30:28.310Z,72.40
2023-06-11T21:32:55.239Z,72.74
2023-06-11T21:35:22.219Z,72.64
2023-06-11T21:37:49.134Z,72.69
2023-06-11T21:40:16.098Z,72.83
2023-06-11T21:42:43.123Z,72.92
2023-06-11T21:45:10.436Z,73.19
2023-06-11T21:47:37.299Z,73.22
2023-06-11T21:50:06.951Z,73.37
2023-06-11T21:52:39.257Z,73.33
2023-06-11T21:55:08.089Z,73.50
2023-06-11T21:57:36.094Z,73.92
2023-06-11T22:00:13.712Z,73.81
2023-06-11T22:02:42.470Z,74.28
2023-06-11T22:05:13.492Z,74.36
2023-06-11T22:07:41.677Z,74.53
2023-06-11T22:10:10.253Z,74.43
2023-06-11T22:12:43.172Z,74.76
2023-06-11T22:15:11.971Z,74.82
2023-06-11T22:17:40.849Z,74.85
2023-06-11T22:20:10.849Z,75.09
2023-06-11T22:22:43.753Z,75.34
2023-06-11T22:25:12.208Z,75.49
2023-06-11T22:27:43.548Z,75.74
2023-06-11T22:30:12.325Z,75.85
2023-06-11T22:32:39.654Z,76.19
2023-06-11T22:35:07.299Z,76.10
2023-06-11T22:37:36.934Z,76.31
2023-06-11T22:40:06.188Z,76.42
2023-06-11T22:42:33.979Z,76.64
2023-06-11T22:45:01.212Z,76.73
2023-06-11T22:47:29.429Z,76.94
2023-06-11T22:49:57.589Z,77.20
2023-06-11T22:52:24.551Z,77.22
2023-06-11T22:54:51.518Z,77.29
2023-06-11T22:57:18.387Z,77.48
2023-06-11T22:59:45.183Z,77.56
2023-06-11T23:02:12.392Z,77.90
2023-06-11T23:04:40.649Z,77.91
2023-06-11T23:07:07.785Z,78.05
2023-06-11T23:09:34.716Z,78.20
2023-06-11T23:12:01.671Z,78.15
2023-06-11T23:14:28.498Z,78.40
2023-06-11T23:16:58.854Z,78.41
2023-06-11T23:19:27.166Z,78.63
2023-06-11T23:21:58.273Z,78.81
2023-06-11T23:24:27.977Z,78.79
2023-06-11T23:26:57.716Z,79.03
2023-06-11T23:29:25.166Z,79.36
2023-06-11T23:31:52.227Z,79.50
2023-06-11T23:34:19.246Z,79.34
2023-06-11T23:36:48.092Z,79.60
2023-06-11T23:39:16.361Z,79.63
2023-06-11T23:41:43.303Z,79.35
2023-06-11T23:44:12.033Z,79.17
2023-06-11T23:46:39.168Z,78.99
2023-06-11T23:49:06.135Z,79.19
2023-06-11T23:51:33.762Z,79.62
2023-06-11T23:54:01.116Z,79.54
2023-06-11T23:56:27.979Z,80.17
2023-06-11T23:58:54.858Z,80.70
